Time;durP1;ratioP1;P1;durP2;ratioP2;P2;SDS_P1;SDS_P2;PMS_P1;PMS_P2;Temp;Humidity;BMP_temperature;BMP_pressure;BME280_temperature;BME280_humidity;BME280_pressure;Samples;Min_cycle;Max_cycle;Signal;HPM_P1;HPM_P2
2023/08/11 00:02:05;;;;;;;;;;;;;;;20.85;56.44;96223.53;10441191;28;1914;-65
2023/08/11 00:07:05;;;;;;;;;;;;;;;20.84;56.30;96224.56;10439365;28;1965;-65
2023/08/11 00:12:06;;;;;;;;;;;;;;;20.84;56.20;96219.31;10436414;28;2120;-65
2023/08/11 00:17:06;;;;;;;;;;;;;;;20.84;56.07;96221.94;10445809;28;2283;-65
2023/08/11 00:22:07;;;;;;;;;;;;;;;20.83;56.17;96212.47;10444943;28;1882;-64
2023/08/11 00:27:07;;;;;;;;;;;;;;;20.83;55.96;96215.09;10472169;28;2386;-66
2023/08/11 00:32:07;;;;;;;;;;;;;;;20.83;56.17;96216.94;10444935;28;1865;-66
2023/08/11 00:37:07;;;;;;;;;;;;;;;20.84;56.17;96229.84;10448813;28;1991;-66
2023/08/11 00:42:08;;;;;;;;;;;;;;;20.83;55.92;96217.75;10441067;28;4454;-66
2023/08/11 00:47:08;;;;;;;;;;;;;;;20.82;56.01;96216.16;10440027;28;1920;-66
2023/08/11 00:52:09;;;;;;;;;;;;;;;20.82;55.73;96220.63;10442969;28;1938;-66
2023/08/11 00:57:09;;;;;;;;;;;;;;;20.82;55.46;96220.63;10437133;28;2347;-66
2023/08/11 01:02:11;;;;;;;;;;;;;;;20.82;55.51;96210.06;10440723;28;1902;-66
2023/08/11 01:07:14;;;;;;;;;;;;;;;20.81;55.38;96219.81;10438037;28;1905;-67
2023/08/11 01:12:17;;;;;;;;;;;;;;;20.82;55.67;96225.88;10477416;28;1886;-66
2023/08/11 01:17:18;;;;;;;;;;;;;;;20.81;55.36;96230.34;10437777;28;1969;-66
2023/08/11 01:22:19;;;;;;;;;;;;;;;20.81;55.51;96233.00;10432497;28;2463;-65
2023/08/11 01:27:19;;;;;;;;;;;;;;;20.80;55.18;96238.53;10439734;28;1881;-65
2023/08/11 01:32:19;;;;;;;;;;;;;;;20.81;55.03;96240.13;10397274;28;1120602;-65
2023/08/11 01:37:19;;;;;;;;;;;;;;;20.80;55.18;96238.53;10442490;28;1938;-66
2023/08/11 01:42:20;;;;;;;;;;;;;;;20.81;54.96;96234.84;10436938;28;4525;-66
2023/08/11 01:47:20;;;;;;;;;;;;;;;20.80;54.94;96233.25;10434854;28;1962;-66
2023/08/11 01:52:20;;;;;;;;;;;;;;;20.80;55.07;96234.06;10437229;28;1884;-66
2023/08/11 01:57:21;;;;;;;;;;;;;;;20.80;54.72;96228.78;10440443;28;2078;-66
2023/08/11 02:02:21;;;;;;;;;;;;;;;20.80;54.69;96230.63;10437226;28;2017;-65
2023/08/11 02:07:21;;;;;;;;;;;;;;;20.80;54.70;96233.25;10437141;28;1931;-65
2023/08/11 02:12:22;;;;;;;;;;;;;;;20.80;54.92;96228.00;10435119;28;1877;-65
2023/08/11 02:17:22;;;;;;;;;;;;;;;20.80;54.87;96223.53;10445573;28;2257;-66
2023/08/11 02:22:23;;;;;;;;;;;;;;;20.79;54.72;96221.94;10434240;28;1977;-65
2023/08/11 02:27:23;;;;;;;;;;;;;;;20.80;55.08;96226.16;10439942;28;1951;-66
2023/08/11 02:32:24;;;;;;;;;;;;;;;20.79;54.59;96232.47;10446215;28;1978;-64
2023/08/11 02:37:24;;;;;;;;;;;;;;;20.80;54.72;96235.91;10451740;28;1910;-64
2023/08/11 02:42:25;;;;;;;;;;;;;;;20.80;54.68;96234.06;10446215;28;4595;-65
2023/08/11 02:47:25;;;;;;;;;;;;;;;20.80;54.71;96231.44;10441825;28;1864;-64
2023/08/11 02:52:26;;;;;;;;;;;;;;;20.80;54.71;96228.78;10444861;28;1918;-65
2023/08/11 02:57:26;;;;;;;;;;;;;;;20.81;54.43;96227.72;10442593;28;1989;-65
2023/08/11 03:02:26;;;;;;;;;;;;;;;20.81;54.70;96221.69;10447456;28;1969;-66
2023/08/11 03:07:27;;;;;;;;;;;;;;;20.81;54.62;96219.81;10447160;28;1885;-65
2023/08/11 03:12:30;;;;;;;;;;;;;;;20.82;54.41;96217.97;10444920;28;2217;-66
2023/08/11 03:17:31;;;;;;;;;;;;;;;20.81;54.69;96219.06;10446139;28;1981;-65
2023/08/11 03:22:31;;;;;;;;;;;;;;;20.80;54.40;96220.88;10439161;28;1947;-65
2023/08/11 03:27:31;;;;;;;;;;;;;;;20.81;54.29;96224.31;10443086;28;2081;-65
2023/08/11 03:32:31;;;;;;;;;;;;;;;20.81;54.33;96222.44;10443081;28;1871;-65
2023/08/11 03:37:32;;;;;;;;;;;;;;;20.81;54.62;96230.34;10445416;28;2128;-65
2023/08/11 03:42:32;;;;;;;;;;;;;;;20.81;54.09;96238.25;10467949;28;1883;-64
2023/08/11 03:47:33;;;;;;;;;;;;;;;20.81;54.19;96235.63;10446685;28;2043;-66
2023/08/11 03:52:33;;;;;;;;;;;;;;;20.81;53.99;96237.50;10441026;28;2000;-65
2023/08/11 03:57:34;;;;;;;;;;;;;;;20.81;54.22;96246.16;10440786;28;2022;-66
2023/08/11 04:02:34;;;;;;;;;;;;;;;20.82;54.11;96254.88;10445826;28;1907;-66
2023/08/11 04:07:34;;;;;;;;;;;;;;;20.81;54.04;96251.44;10441627;28;2329;-66
2023/08/11 04:12:34;;;;;;;;;;;;;;;20.83;54.21;96267.00;10439880;28;1912;-66
2023/08/11 04:17:36;;;;;;;;;;;;;;;20.82;53.92;96260.94;10441004;28;1949;-66
2023/08/11 04:22:37;;;;;;;;;;;;;;;20.81;54.06;96259.34;10441681;28;1944;-66
2023/08/11 04:27:39;;;;;;;;;;;;;;;20.82;53.83;96258.31;10441906;28;1905;-65
2023/08/11 04:32:39;;;;;;;;;;;;;;;20.82;53.83;96263.56;10439218;28;1970;-66
2023/08/11 04:37:40;;;;;;;;;;;;;;;20.83;53.96;96261.72;10439002;28;1995;-66
2023/08/11 04:42:40;;;;;;;;;;;;;;;20.83;53.96;96267.00;10442611;28;4477;-65
2023/08/11 04:47:41;;;;;;;;;;;;;;;20.84;54.09;96276.47;10438302;28;1966;-65
2023/08/11 04:52:41;;;;;;;;;;;;;;;20.83;54.04;96275.72;10447615;28;1981;-65
2023/08/11 04:57:42;;;;;;;;;;;;;;;20.84;53.95;96279.13;10439822;28;1931;-66
2023/08/11 05:02:45;;;;;;;;;;;;;;;20.85;54.32;96280.72;10439894;28;1865;-66
2023/08/11 05:07:45;;;;;;;;;;;;;;;20.85;54.16;96284.16;10441811;28;2277;-65
2023/08/11 05:12:47;;;;;;;;;;;;;;;20.86;54.29;96296.25;10441573;28;1918;-65
2023/08/11 05:17:47;;;;;;;;;;;;;;;20.86;54.34;96287.53;10466565;28;2024;-65
2023/08/11 05:22:47;;;;;;;;;;;;;;;20.86;54.15;96290.19;10443742;28;1925;-65
2023/08/11 05:27:48;;;;;;;;;;;;;;;20.86;54.12;96295.44;10439744;28;1877;-65
2023/08/11 05:32:48;;;;;;;;;;;;;;;20.86;54.13;96296.25;10441491;28;1959;-65
2023/08/11 05:37:48;;;;;;;;;;;;;;;20.87;54.12;96286.50;10439685;28;1893;-65
2023/08/11 05:42:48;;;;;;;;;;;;;;;20.87;54.11;96287.31;10437386;28;4568;-66
2023/08/11 05:47:49;;;;;;;;;;;;;;;20.87;54.22;96282.03;10439089;28;1897;-65
2023/08/11 05:52:49;;;;;;;;;;;;;;;20.88;53.98;96288.88;10441525;28;1906;-65
2023/08/11 05:57:49;;;;;;;;;;;;;;;20.87;53.96;96287.31;10439091;28;1896;-65
2023/08/11 06:02:50;;;;;;;;;;;;;;;20.88;54.15;96295.97;10434295;28;2429;-70
2023/08/11 06:07:50;;;;;;;;;;;;;;;20.88;53.97;96294.13;10463761;28;2138;-65
2023/08/11 06:12:50;;;;;;;;;;;;;;;20.91;53.95;96298.09;10446289;28;1975;-63
2023/08/11 06:17:50;;;;;;;;;;;;;;;20.90;53.75;96292.03;10445306;28;1936;-64
2023/08/11 06:22:51;;;;;;;;;;;;;;;20.91;53.67;96298.91;10474054;28;1880;-65
2023/08/11 06:27:51;;;;;;;;;;;;;;;20.91;53.86;96296.25;10441400;28;1939;-65
2023/08/11 06:32:51;;;;;;;;;;;;;;;20.92;53.84;96294.41;10437886;28;1963;-64
2023/08/11 06:37:52;;;;;;;;;;;;;;;20.91;53.68;96288.34;10443713;28;1897;-63
2023/08/11 06:42:52;;;;;;;;;;;;;;;20.93;53.73;96288.88;10468632;28;4482;-65
2023/08/11 06:47:52;;;;;;;;;;;;;;;20.90;53.66;96294.66;10438559;28;1999;-64
2023/08/11 06:52:52;;;;;;;;;;;;;;;20.88;53.33;96309.94;10438209;28;1979;-65
2023/08/11 06:57:53;;;;;;;;;;;;;;;20.86;53.32;96312.06;10440831;28;2297;-66
2023/08/11 07:02:53;;;;;;;;;;;;;;;20.86;53.51;96317.31;10435226;28;1961;-65
2023/08/11 07:07:53;;;;;;;;;;;;;;;20.87;53.43;96315.50;10442089;28;1878;-66
2023/08/11 07:12:53;;;;;;;;;;;;;;;20.87;53.34;96318.13;10437243;28;1981;-64
2023/08/11 07:17:54;;;;;;;;;;;;;;;20.88;53.48;96325.75;10470300;28;1840;-63
2023/08/11 07:22:54;;;;;;;;;;;;;;;20.88;53.75;96324.97;10441472;28;2105;-61
2023/08/11 07:27:55;;;;;;;;;;;;;;;20.88;53.54;96331.03;10442069;28;1886;-63
2023/08/11 07:32:55;;;;;;;;;;;;;;;20.89;53.61;96322.09;10436973;28;1999;-62
2023/08/11 07:37:56;;;;;;;;;;;;;;;20.91;53.96;96321.81;10434397;28;2196;-60
2023/08/11 07:42:57;;;;;;;;;;;;;;;20.93;53.82;96323.16;10434503;28;4557;-65
2023/08/11 07:47:57;;;;;;;;;;;;;;;20.94;53.74;96323.91;10429724;28;1884;-65
2023/08/11 07:52:57;;;;;;;;;;;;;;;20.94;53.58;96314.19;10441067;28;2273;-65
2023/08/11 07:57:58;;;;;;;;;;;;;;;20.95;53.36;96307.88;10443338;28;1873;-66
2023/08/11 08:02:58;;;;;;;;;;;;;;;20.95;52.82;96317.59;10438742;28;1848;-65
2023/08/11 08:07:58;;;;;;;;;;;;;;;20.96;53.26;96317.34;10435609;28;1891;-66
2023/08/11 08:12:59;;;;;;;;;;;;;;;20.95;53.19;96326.31;10442416;28;1977;-64
2023/08/11 08:17:59;;;;;;;;;;;;;;;20.95;53.18;96321.03;10437761;28;1878;-66
2023/08/11 08:22:59;;;;;;;;;;;;;;;20.98;52.97;96325.78;10434347;28;1818;-67
2023/08/11 08:27:59;;;;;;;;;;;;;;;20.99;52.91;96327.38;10454423;28;1873;-71
2023/08/11 08:33:00;;;;;;;;;;;;;;;21.00;52.88;96318.41;10435901;28;2017;-68
2023/08/11 08:38:00;;;;;;;;;;;;;;;21.01;52.92;96321.84;10437495;28;2119;-68
2023/08/11 08:43:00;;;;;;;;;;;;;;;21.00;53.00;96318.41;10454071;28;4682;-67
2023/08/11 08:48:01;;;;;;;;;;;;;;;21.01;53.10;96321.84;10434484;28;1885;-68
2023/08/11 08:53:01;;;;;;;;;;;;;;;21.03;52.90;96317.91;10440252;28;1976;-69
2023/08/11 08:58:01;;;;;;;;;;;;;;;21.05;52.73;96321.09;10432335;28;1886;-69
2023/08/11 09:03:02;;;;;;;;;;;;;;;21.05;52.29;96313.16;10431045;28;1869;-69
2023/08/11 09:08:03;;;;;;;;;;;;;;;21.04;52.90;96314.22;10455511;28;1508;-67
2023/08/11 09:13:03;;;;;;;;;;;;;;;21.06;52.60;96317.38;10441901;28;1910;-65
2023/08/11 09:18:03;;;;;;;;;;;;;;;21.08;52.94;96319.78;10440257;28;1501;-66
2023/08/11 09:23:07;;;;;;;;;;;;;;;21.09;53.06;96313.44;10438829;28;1822;-67
2023/08/11 09:28:07;;;;;;;;;;;;;;;21.11;53.49;96305.25;10439123;28;1548;-66
2023/08/11 09:33:07;;;;;;;;;;;;;;;21.12;53.58;96307.66;10437866;28;1989;-66
2023/08/11 09:38:08;;;;;;;;;;;;;;;21.13;53.54;96303.13;10437363;28;1695;-67
2023/08/11 09:43:09;;;;;;;;;;;;;;;21.14;53.48;96310.00;10440717;28;4502;-66
2023/08/11 09:48:09;;;;;;;;;;;;;;;21.16;53.69;96315.81;10447386;28;2252;-67
2023/08/11 09:53:10;;;;;;;;;;;;;;;21.17;53.86;96312.09;10451669;28;1914;-67
2023/08/11 09:58:10;;;;;;;;;;;;;;;21.19;53.92;96302.09;10444220;28;1888;-67
2023/08/11 10:03:10;;;;;;;;;;;;;;;21.21;54.16;96297.34;10442700;28;1528;-66
2023/08/11 10:08:14;;;;;;;;;;;;;;;21.23;54.09;96300.50;10447653;28;1492;-72
2023/08/11 10:13:23;;;;;;;;;;;;;;;21.23;53.83;96303.13;10447799;28;1906;-70
2023/08/11 10:18:23;;;;;;;;;;;;;;;21.26;54.02;96300.00;10449060;28;1529;-67
2023/08/11 10:23:23;;;;;;;;;;;;;;;21.29;54.16;96300.25;10463391;28;1599;-68
2023/08/11 10:28:24;;;;;;;;;;;;;;;21.28;54.27;96303.16;10449143;28;1443;-67
2023/08/11 10:33:27;;;;;;;;;;;;;;;21.32;53.98;96299.72;10459621;28;1905;-65
2023/08/11 10:38:28;;;;;;;;;;;;;;;21.31;54.55;96298.13;10450295;28;1456;-69
2023/08/11 10:43:30;;;;;;;;;;;;;;;21.33;54.42;96295.25;10443353;28;4580;-69
2023/08/11 10:48:30;;;;;;;;;;;;;;;21.37;54.07;96291.03;10442172;28;1976;-68
2023/08/11 10:53:30;;;;;;;;;;;;;;;21.38;53.97;96290.75;10438908;28;1923;-67
2023/08/11 10:58:31;;;;;;;;;;;;;;;21.37;53.74;96281.25;10437709;28;1870;-67
2023/08/11 11:03:31;;;;;;;;;;;;;;;21.39;53.62;96284.41;10438266;28;1850;-68
2023/08/11 11:08:31;;;;;;;;;;;;;;;21.44;53.49;96278.34;10418709;28;1965;-68
2023/08/11 11:13:31;;;;;;;;;;;;;;;21.43;53.43;96287.31;10437885;28;2004;-68
2023/08/11 11:18:32;;;;;;;;;;;;;;;21.44;53.14;96278.34;10437517;28;1897;-68
2023/08/11 11:23:33;;;;;;;;;;;;;;;21.48;52.52;96274.13;10455606;28;1831;-68
2023/08/11 11:28:33;;;;;;;;;;;;;;;21.48;52.19;96274.91;10438269;28;1875;-69
2023/08/11 11:33:33;;;;;;;;;;;;;;;21.49;52.30;96273.06;10441534;28;1942;-69
2023/08/11 11:38:34;;;;;;;;;;;;;;;21.50;52.24;96275.44;10434749;28;2300;-68
2023/08/11 11:43:34;;;;;;;;;;;;;;;21.50;52.44;96279.91;10455834;28;4556;-68
2023/08/11 11:48:34;;;;;;;;;;;;;;;21.53;51.80;96276.75;10438674;28;1876;-68
2023/08/11 11:53:35;;;;;;;;;;;;;;;21.53;52.08;96274.91;10435573;28;1910;-68
2023/08/11 11:58:38;;;;;;;;;;;;;;;21.53;51.95;96274.91;10432543;28;1977;-68
2023/08/11 12:03:39;;;;;;;;;;;;;;;21.55;51.96;96275.44;10435177;28;1885;-68
2023/08/11 12:08:41;;;;;;;;;;;;;;;21.58;51.64;96272.25;10442755;28;2014;-68
2023/08/11 12:13:42;;;;;;;;;;;;;;;21.56;51.96;96269.09;10440594;28;1910;-69
2023/08/11 12:18:42;;;;;;;;;;;;;;;21.58;51.98;96277.53;10433103;28;1878;-69
2023/08/11 12:23:42;;;;;;;;;;;;;;;21.59;51.83;96271.22;10436660;28;1889;-68
2023/08/11 12:28:43;;;;;;;;;;;;;;;21.62;52.10;96275.13;10434735;28;2222;-67
2023/08/11 12:33:43;;;;;;;;;;;;;;;21.64;52.12;96259.84;10441537;28;1985;-67
2023/08/11 12:38:43;;;;;;;;;;;;;;;21.64;52.37;96257.19;10436753;28;2615;-67
2023/08/11 12:43:43;;;;;;;;;;;;;;;21.68;52.17;96260.88;10441938;28;4568;-67
2023/08/11 12:48:44;;;;;;;;;;;;;;;21.70;52.14;96256.16;10442341;28;1563;-67
2023/08/11 12:53:44;;;;;;;;;;;;;;;21.75;52.04;96250.84;10443368;28;1910;-67
2023/08/11 12:58:44;;;;;;;;;;;;;;;21.75;51.45;96254.28;10443019;28;1699;-67
2023/08/11 13:03:45;;;;;;;;;;;;;;;21.77;51.40;96254.00;10444721;28;1484;-66
2023/08/11 13:08:45;;;;;;;;;;;;;;;21.79;51.50;96255.31;10444431;28;1507;-67
2023/08/11 13:13:47;;;;;;;;;;;;;;;21.79;51.60;96260.59;10439312;28;2168;-67
2023/08/11 13:18:47;;;;;;;;;;;;;;;21.80;51.70;96258.75;10441460;28;1501;-66
2023/08/11 13:23:47;;;;;;;;;;;;;;;21.79;51.77;96257.97;10437653;28;1484;-68
2023/08/11 13:28:48;;;;;;;;;;;;;;;21.84;51.69;96259.81;10473125;28;1459;-67
2023/08/11 13:33:48;;;;;;;;;;;;;;;21.86;51.67;96257.72;10436347;28;2629;-67
2023/08/11 13:38:48;;;;;;;;;;;;;;;21.87;51.45;96256.63;10438600;28;1418;-67
2023/08/11 13:43:48;;;;;;;;;;;;;;;21.88;51.27;96250.31;10439596;28;4453;-68
2023/08/11 13:48:49;;;;;;;;;;;;;;;21.90;51.46;96256.09;10441537;28;1816;-67
2023/08/11 13:53:49;;;;;;;;;;;;;;;21.92;51.59;96255.84;10442829;28;1910;-67
2023/08/11 13:58:49;;;;;;;;;;;;;;;21.94;51.79;96245.78;10441855;28;1928;-69
2023/08/11 14:03:50;;;;;;;;;;;;;;;21.99;51.08;96241.28;10472936;28;1793;-71
2023/08/11 14:08:50;;;;;;;;;;;;;;;22.00;51.14;96242.06;10436362;28;1610;-71
2023/08/11 14:13:50;;;;;;;;;;;;;;;22.00;50.98;96237.59;10439787;28;1914;-70
2023/08/11 14:18:50;;;;;;;;;;;;;;;22.02;50.98;96230.19;10440260;28;1504;-73
2023/08/11 14:23:51;;;;;;;;;;;;;;;22.07;50.76;96232.78;10439329;28;1616;-71
2023/08/11 14:28:51;;;;;;;;;;;;;;;22.04;51.06;96225.44;10446569;28;2421;-71
2023/08/11 14:33:51;;;;;;;;;;;;;;;22.05;51.33;96227.00;10451654;28;1977;-72
2023/08/11 14:38:51;;;;;;;;;;;;;;;22.10;51.52;96226.19;10451210;28;1531;-71
2023/08/11 14:43:52;;;;;;;;;;;;;;;22.15;51.21;96220.91;10450119;28;4648;-70
2023/08/11 14:48:52;;;;;;;;;;;;;;;22.13;51.19;96229.09;10449547;28;1586;-71
2023/08/11 14:53:52;;;;;;;;;;;;;;;22.19;51.33;96222.72;10456128;28;1902;-73
2023/08/11 14:58:53;;;;;;;;;;;;;;;22.27;50.91;96216.06;10451594;28;1484;-72
2023/08/11 15:03:54;;;;;;;;;;;;;;;22.22;51.02;96221.38;10450474;28;1488;-72
2023/08/11 15:08:54;;;;;;;;;;;;;;;22.24;50.89;96211.31;10464879;28;1853;-72
2023/08/11 15:13:54;;;;;;;;;;;;;;;22.22;50.93;96214.25;10445660;28;1967;-72
2023/08/11 15:18:55;;;;;;;;;;;;;;;22.23;50.94;96207.91;10450324;28;1476;-72
2023/08/11 15:23:55;;;;;;;;;;;;;;;22.21;50.84;96207.41;10449109;28;2289;-71
2023/08/11 15:28:56;;;;;;;;;;;;;;;22.19;51.06;96204.25;10446936;28;1579;-72
2023/08/11 15:33:57;;;;;;;;;;;;;;;22.17;51.20;96209.00;10451909;28;1979;-72
2023/08/11 15:38:59;;;;;;;;;;;;;;;22.22;50.68;96205.53;10447650;28;1796;-73
2023/08/11 15:43:59;;;;;;;;;;;;;;;22.20;51.35;96211.09;10448682;28;4557;-73
2023/08/11 15:49:00;;;;;;;;;;;;;;;22.23;50.95;96199.19;10452420;28;1499;-73
2023/08/11 15:54:00;;;;;;;;;;;;;;;22.22;50.98;96216.88;10450853;28;1985;-72
2023/08/11 15:59:01;;;;;;;;;;;;;;;22.22;51.02;96208.97;10449639;28;1675;-73
2023/08/11 16:04:02;;;;;;;;;;;;;;;22.27;50.85;96211.59;10464783;28;1520;-73
2023/08/11 16:09:03;;;;;;;;;;;;;;;22.25;50.87;96215.56;10448319;28;1506;-73
2023/08/11 16:14:04;;;;;;;;;;;;;;;22.24;50.75;96222.69;10444017;28;1910;-74
2023/08/11 16:19:04;;;;;;;;;;;;;;;22.25;51.17;96213.72;10444494;28;2264;-73
2023/08/11 16:24:04;;;;;;;;;;;;;;;22.24;50.73;96206.03;10446080;28;1497;-74
2023/08/11 16:29:05;;;;;;;;;;;;;;;22.24;50.72;96204.19;10447125;28;1499;-73
2023/08/11 16:34:05;;;;;;;;;;;;;;;22.28;50.61;96201.78;10448576;28;1971;-72
2023/08/11 16:39:05;;;;;;;;;;;;;;;22.26;51.00;96194.16;10446653;28;1844;-74
2023/08/11 16:44:07;;;;;;;;;;;;;;;22.28;50.46;96196.50;10448191;28;4517;-73
2023/08/11 16:49:07;;;;;;;;;;;;;;;22.26;50.51;96188.88;10441063;28;1803;-72
2023/08/11 16:54:07;;;;;;;;;;;;;;;22.27;50.76;96189.66;10446513;28;1973;-71
2023/08/11 16:59:08;;;;;;;;;;;;;;;22.27;50.69;96193.09;10446188;28;1976;-71
2023/08/11 17:04:08;;;;;;;;;;;;;;;22.28;51.09;96186.75;10443690;28;1657;-71
2023/08/11 17:09:09;;;;;;;;;;;;;;;22.29;50.99;96185.69;10443203;28;1483;-70
2023/08/11 17:14:10;;;;;;;;;;;;;;;22.30;50.97;96184.63;10446516;28;2034;-70
2023/08/11 17:19:11;;;;;;;;;;;;;;;22.30;51.14;96187.25;10443160;28;2390;-70
2023/08/11 17:24:11;;;;;;;;;;;;;;;22.29;51.33;96182.25;10447471;28;1554;-70
2023/08/11 17:29:11;;;;;;;;;;;;;;;22.28;51.48;96189.38;10452360;28;1875;-71
2023/08/11 17:34:12;;;;;;;;;;;;;;;22.28;51.34;96180.66;10445888;28;1973;-71
2023/08/11 17:39:12;;;;;;;;;;;;;;;22.29;51.43;96179.63;10471662;28;1780;-71
2023/08/11 17:44:12;;;;;;;;;;;;;;;22.28;51.18;96168.25;10446939;28;4637;-73
2023/08/11 17:49:12;;;;;;;;;;;;;;;22.28;51.41;96176.19;10438258;28;1493;-72
2023/08/11 17:54:13;;;;;;;;;;;;;;;22.29;51.29;96177.75;10446556;28;1973;-70
2023/08/11 17:59:13;;;;;;;;;;;;;;;22.29;51.57;96172.47;10476014;28;1436;-69
2023/08/11 18:04:13;;;;;;;;;;;;;;;22.28;51.48;96176.19;10444970;28;1459;-70
2023/08/11 18:09:13;;;;;;;;;;;;;;;22.27;51.65;96179.09;10450179;28;1495;-71
2023/08/11 18:14:14;;;;;;;;;;;;;;;22.26;52.00;96177.50;10450377;28;2309;-70
2023/08/11 18:19:14;;;;;;;;;;;;;;;22.27;51.56;96174.63;10453065;28;1614;-71
2023/08/11 18:24:14;;;;;;;;;;;;;;;22.27;51.85;96169.34;10452197;28;1569;-70
2023/08/11 18:29:15;;;;;;;;;;;;;;;22.27;51.70;96179.09;10453031;28;1769;-71
2023/08/11 18:34:15;;;;;;;;;;;;;;;22.26;51.80;96178.31;10449884;28;1983;-73
2023/08/11 18:39:16;;;;;;;;;;;;;;;22.27;52.07;96185.19;10444084;28;1897;-71
2023/08/11 18:44:17;;;;;;;;;;;;;;;22.27;51.91;96184.38;10448434;28;4530;-70
2023/08/11 18:49:18;;;;;;;;;;;;;;;22.27;52.37;96185.19;10446722;28;1971;-72
2023/08/11 18:54:18;;;;;;;;;;;;;;;22.27;52.10;96184.38;10446154;28;1913;-72
2023/08/11 18:59:18;;;;;;;;;;;;;;;22.29;52.26;96195.47;10444891;28;2012;-72
2023/08/11 19:04:19;;;;;;;;;;;;;;;22.29;52.63;96198.91;10452881;28;1846;-72
2023/08/11 19:09:19;;;;;;;;;;;;;;;22.31;52.38;96204.69;10445796;28;2299;-72
2023/08/11 19:14:19;;;;;;;;;;;;;;;22.31;52.75;96209.19;10445291;28;1949;-72
2023/08/11 19:19:19;;;;;;;;;;;;;;;22.31;52.60;96215.25;10443470;28;1885;-72
2023/08/11 19:24:20;;;;;;;;;;;;;;;22.31;52.94;96209.19;10443199;28;1858;-72
2023/08/11 19:29:21;;;;;;;;;;;;;;;22.32;52.98;96194.91;10443569;28;1851;-71
2023/08/11 19:34:21;;;;;;;;;;;;;;;22.34;53.62;96190.16;10473205;28;2278;-70
2023/08/11 19:39:21;;;;;;;;;;;;;;;22.34;53.36;96198.84;10448542;28;1830;-69
2023/08/11 19:44:22;;;;;;;;;;;;;;;22.36;53.42;96199.38;10437396;28;4577;-70
2023/08/11 19:49:22;;;;;;;;;;;;;;;22.38;53.56;96191.94;10445546;28;1827;-69
2023/08/11 19:54:23;;;;;;;;;;;;;;;22.36;53.68;96182.75;10441089;28;1914;-70
2023/08/11 19:59:23;;;;;;;;;;;;;;;22.38;53.53;96185.91;10453801;28;1914;-73
2023/08/11 20:04:23;;;;;;;;;;;;;;;22.36;53.57;96188.78;10446349;28;2399;-69
2023/08/11 20:09:24;;;;;;;;;;;;;;;22.38;53.53;96193.81;10441952;28;1878;-65
2023/08/11 20:14:24;;;;;;;;;;;;;;;22.34;53.49;96187.53;10441245;28;2060;-66
2023/08/11 20:19:24;;;;;;;;;;;;;;;22.32;53.38;96177.19;10442893;28;2167;-66
2023/08/11 20:24:24;;;;;;;;;;;;;;;22.32;53.74;96187.78;10442175;28;2085;-64
2023/08/11 20:29:25;;;;;;;;;;;;;;;22.29;53.37;96185.69;10440555;28;2060;-64
2023/08/11 20:34:26;;;;;;;;;;;;;;;22.29;53.55;96176.97;10438907;28;1910;-63
2023/08/11 20:39:26;;;;;;;;;;;;;;;22.27;53.28;96171.97;10444119;28;2029;-70
2023/08/11 20:44:26;;;;;;;;;;;;;;;22.26;53.39;96173.03;10458742;28;4485;-67
2023/08/11 20:49:27;;;;;;;;;;;;;;;22.26;53.67;96170.38;10439283;28;2088;-71
2023/08/11 20:54:28;;;;;;;;;;;;;;;22.28;53.91;96173.53;10440751;28;2081;-70
2023/08/11 20:59:30;;;;;;;;;;;;;;;22.28;53.91;96170.91;10447829;28;1514;-69
2023/08/11 21:04:30;;;;;;;;;;;;;;;22.28;53.89;96168.25;10476158;28;2462;-69
2023/08/11 21:09:31;;;;;;;;;;;;;;;22.28;54.18;96170.91;10445555;28;1482;-69
2023/08/11 21:14:32;;;;;;;;;;;;;;;22.27;53.86;96158.75;10447524;28;1975;-71
2023/08/11 21:19:32;;;;;;;;;;;;;;;22.28;54.02;96170.91;10446185;28;1547;-70
2023/08/11 21:24:32;;;;;;;;;;;;;;;22.29;54.33;96171.69;10438512;28;1558;-70
2023/08/11 21:29:33;;;;;;;;;;;;;;;22.29;54.51;96176.97;10445886;28;1703;-69
2023/08/11 21:34:33;;;;;;;;;;;;;;;22.28;54.10;96170.91;10475592;28;1918;-71
2023/08/11 21:39:36;;;;;;;;;;;;;;;22.29;54.11;96166.41;10451004;28;1484;-70
2023/08/11 21:44:36;;;;;;;;;;;;;;;22.28;54.23;96170.91;10469085;28;4910;-69
2023/08/11 21:49:36;;;;;;;;;;;;;;;22.28;54.14;96165.63;10456356;28;1571;-69
2023/08/11 21:54:37;;;;;;;;;;;;;;;22.24;54.23;96164.59;10454619;28;1902;-69
2023/08/11 21:59:40;;;;;;;;;;;;;;;22.26;54.01;96169.59;10454532;28;2274;-70
2023/08/11 22:04:44;;;;;;;;;;;;;;;22.24;54.05;96164.59;10456278;28;1649;-69
2023/08/11 22:09:44;;;;;;;;;;;;;;;22.24;54.31;96164.59;10451134;28;1496;-69
2023/08/11 22:14:45;;;;;;;;;;;;;;;22.22;53.91;96163.28;10456550;28;1909;-70
2023/08/11 22:19:45;;;;;;;;;;;;;;;22.22;54.15;96166.72;10459993;28;1514;-69
2023/08/11 22:24:46;;;;;;;;;;;;;;;22.21;53.77;96159.88;10484815;28;1432;-69
2023/08/11 22:29:48;;;;;;;;;;;;;;;22.19;53.92;96155.91;10451725;28;1750;-69
2023/08/11 22:34:52;;;;;;;;;;;;;;;22.18;54.02;96157.75;10452391;28;1969;-70
2023/08/11 22:39:52;;;;;;;;;;;;;;;22.16;53.67;96159.88;10451212;28;4552;-70
2023/08/11 22:44:54;;;;;;;;;;;;;;;22.16;53.82;96161.72;10453083;28;1551;-69
2023/08/11 22:49:55;;;;;;;;;;;;;;;22.14;53.95;96156.72;10442513;28;1432;-68
2023/08/11 22:54:55;;;;;;;;;;;;;;;22.14;53.58;96159.38;10452480;28;2399;-69
2023/08/11 22:59:56;;;;;;;;;;;;;;;22.13;53.94;96152.53;10451253;28;1866;-70
2023/08/11 23:04:56;;;;;;;;;;;;;;;22.12;53.92;96150.94;10451797;28;1471;-67
2023/08/11 23:09:56;;;;;;;;;;;;;;;22.12;53.68;96144.84;10447030;28;1495;-69
2023/08/11 23:14:57;;;;;;;;;;;;;;;22.11;53.58;96136.16;10448401;28;1906;-67
2023/08/11 23:19:57;;;;;;;;;;;;;;;22.09;53.71;96132.97;10450930;28;1903;-69
2023/08/11 23:24:57;;;;;;;;;;;;;;;22.08;53.58;96128.78;10439867;28;1901;-69
2023/08/11 23:29:58;;;;;;;;;;;;;;;22.07;53.81;96126.44;10444324;28;1965;-70
2023/08/11 23:34:58;;;;;;;;;;;;;;;22.06;54.03;96130.09;10475374;28;2025;-69
2023/08/11 23:39:59;;;;;;;;;;;;;;;22.06;53.98;96124.84;10442677;28;4577;-69
2023/08/11 23:44:59;;;;;;;;;;;;;;;22.05;53.69;96116.13;10446483;28;2112;-70
2023/08/11 23:50:00;;;;;;;;;;;;;;;22.08;53.83;96123.50;10444908;28;2331;-70
2023/08/11 23:55:04;;;;;;;;;;;;;;;22.09;54.11;96111.09;10443231;28;1910;-70
